Terminal Aerodrome Forecast
Issued by NWS

Home | Current Version | Previous Version | Text Only | Print | Product List | Glossary On
Versions: 1 2 3 4 5 6 7 8 9 10 11 12 13 14 15 16 17 18 19 20 21 22 23 24 25 26 27 28 29 30
244
FTUS41 KGYX 252320
TAFPSM
TAF
KPSM 252320Z 2600/2624 14008KT 1/4SM FG OVC001
      TEMPO 2600/2603 1 1/2SM -SHRA BR BKN006 OVC012
     FM260300 25010KT 3SM SHRA BR SCT006 OVC012
     FM260900 30012G20KT P6SM SCT040 BKN080
     FM261400 28015G25KT P6SM SCT100=

USA.gov is the U.S. government's official web portal to all federal, state and local government web resources and services.